IXC weather

Chandigarh Airport
Chandigarh, Chandigarh, India

Public forecast

Using degrees Celsius for public forecast. Weather courtesy of forecast.io.

Current aviation weather report (METAR) for Chandigarh Airport

Retrieved 2020/07/07 17:30 UTC (2 hours ago):

VICG 071730Z 13009KT 6000 RERA FEW015 SCT025 BKN090 28/28 Q1005 TEMPO RAIN

Aviation forecast (TAF) for Chandigarh Airport

Retrieved 2020/07/07 18:30 UTC (34 minutes ago):

TAF VICG 071530Z 0718/0806 10010KT 5000 -RA/BR FEW015 SCT035 BKN080 TEMPO 0718/0722 FEW030TCU/CB BECMG 0804/0806 13010KT 6000 SCT020 SCT090